sensor_id;sensor_type;location;lat;lon;timestamp;P1;durP1;ratioP1;P2;durP2;ratioP2
73938;SDS011;62291;47.554;8.504;2022-12-20T00:01:16;207.32;;;61.08;;
73938;SDS011;62291;47.554;8.504;2022-12-20T00:03:50;198.32;;;56.83;;
73938;SDS011;62291;47.554;8.504;2022-12-20T00:06:18;200.10;;;58.22;;
73938;SDS011;62291;47.554;8.504;2022-12-20T00:08:44;176.18;;;56.00;;
73938;SDS011;62291;47.554;8.504;2022-12-20T00:11:10;178.18;;;54.70;;
73938;SDS011;62291;47.554;8.504;2022-12-20T00:13:36;179.02;;;54.40;;
73938;SDS011;62291;47.554;8.504;2022-12-20T00:16:10;176.50;;;53.95;;
73938;SDS011;62291;47.554;8.504;2022-12-20T00:18:36;242.23;;;59.58;;
73938;SDS011;62291;47.554;8.504;2022-12-20T00:21:03;206.77;;;60.63;;
73938;SDS011;62291;47.554;8.504;2022-12-20T00:23:30;234.13;;;57.60;;
73938;SDS011;62291;47.554;8.504;2022-12-20T00:26:07;270.45;;;63.08;;
73938;SDS011;62291;47.554;8.504;2022-12-20T00:28:35;445.35;;;76.20;;
73938;SDS011;62291;47.554;8.504;2022-12-20T00:31:01;437.10;;;73.38;;
73938;SDS011;62291;47.554;8.504;2022-12-20T00:33:28;492.20;;;80.47;;
73938;SDS011;62291;47.554;8.504;2022-12-20T00:35:57;227.73;;;55.60;;
73938;SDS011;62291;47.554;8.504;2022-12-20T00:38:23;203.35;;;55.25;;
73938;SDS011;62291;47.554;8.504;2022-12-20T00:40:59;604.22;;;78.70;;
73938;SDS011;62291;47.554;8.504;2022-12-20T00:43:27;266.52;;;61.10;;
73938;SDS011;62291;47.554;8.504;2022-12-20T00:45:53;341.48;;;65.07;;
73938;SDS011;62291;47.554;8.504;2022-12-20T00:48:19;349.83;;;67.45;;
73938;SDS011;62291;47.554;8.504;2022-12-20T00:50:45;445.30;;;74.13;;
73938;SDS011;62291;47.554;8.504;2022-12-20T00:53:10;412.02;;;73.13;;
73938;SDS011;62291;47.554;8.504;2022-12-20T00:55:42;388.17;;;70.03;;
73938;SDS011;62291;47.554;8.504;2022-12-20T00:58:10;326.80;;;67.88;;
73938;SDS011;62291;47.554;8.504;2022-12-20T01:00:36;342.50;;;69.65;;
73938;SDS011;62291;47.554;8.504;2022-12-20T01:03:03;306.35;;;65.32;;
73938;SDS011;62291;47.554;8.504;2022-12-20T01:05:30;226.15;;;59.90;;
73938;SDS011;62291;47.554;8.504;2022-12-20T01:07:55;201.05;;;57.85;;
73938;SDS011;62291;47.554;8.504;2022-12-20T01:10:21;206.52;;;58.17;;
73938;SDS011;62291;47.554;8.504;2022-12-20T01:12:47;211.40;;;60.05;;
73938;SDS011;62291;47.554;8.504;2022-12-20T01:15:13;216.85;;;60.55;;
73938;SDS011;62291;47.554;8.504;2022-12-20T01:17:39;215.50;;;59.88;;
73938;SDS011;62291;47.554;8.504;2022-12-20T01:20:05;197.32;;;57.20;;
73938;SDS011;62291;47.554;8.504;2022-12-20T01:22:35;204.40;;;57.35;;
73938;SDS011;62291;47.554;8.504;2022-12-20T01:25:00;181.85;;;55.30;;
73938;SDS011;62291;47.554;8.504;2022-12-20T01:27:26;202.35;;;57.25;;
73938;SDS011;62291;47.554;8.504;2022-12-20T01:29:52;172.07;;;52.22;;
73938;SDS011;62291;47.554;8.504;2022-12-20T01:32:19;177.40;;;52.67;;
73938;SDS011;62291;47.554;8.504;2022-12-20T01:34:44;166.38;;;51.08;;
73938;SDS011;62291;47.554;8.504;2022-12-20T01:37:10;165.40;;;51.55;;
73938;SDS011;62291;47.554;8.504;2022-12-20T01:39:36;188.90;;;54.15;;
73938;SDS011;62291;47.554;8.504;2022-12-20T01:42:02;207.27;;;56.03;;
73938;SDS011;62291;47.554;8.504;2022-12-20T01:46:54;187.10;;;54.03;;
73938;SDS011;62291;47.554;8.504;2022-12-20T01:49:30;200.05;;;56.88;;
73938;SDS011;62291;47.554;8.504;2022-12-20T01:52:03;212.35;;;57.90;;
73938;SDS011;62291;47.554;8.504;2022-12-20T01:54:37;243.75;;;57.17;;
73938;SDS011;62291;47.554;8.504;2022-12-20T01:57:11;1147.90;;;106.38;;
73938;SDS011;62291;47.554;8.504;2022-12-20T01:59:46;372.42;;;66.05;;
73938;SDS011;62291;47.554;8.504;2022-12-20T02:02:14;288.15;;;60.80;;
73938;SDS011;62291;47.554;8.504;2022-12-20T02:04:40;253.68;;;59.22;;
73938;SDS011;62291;47.554;8.504;2022-12-20T02:07:06;269.02;;;62.75;;
73938;SDS011;62291;47.554;8.504;2022-12-20T02:09:36;298.75;;;63.78;;
73938;SDS011;62291;47.554;8.504;2022-12-20T02:14:43;293.23;;;63.22;;
73938;SDS011;62291;47.554;8.504;2022-12-20T02:20:26;352.48;;;64.93;;
73938;SDS011;62291;47.554;8.504;2022-12-20T02:26:21;176.77;;;52.92;;
73938;SDS011;62291;47.554;8.504;2022-12-20T02:34:50;158.27;;;48.95;;
73938;SDS011;62291;47.554;8.504;2022-12-20T02:37:17;843.58;;;87.68;;
73938;SDS011;62291;47.554;8.504;2022-12-20T02:39:43;987.53;;;102.78;;
73938;SDS011;62291;47.554;8.504;2022-12-20T02:42:11;931.35;;;93.43;;
73938;SDS011;62291;47.554;8.504;2022-12-20T02:44:46;549.97;;;75.07;;
73938;SDS011;62291;47.554;8.504;2022-12-20T02:47:38;835.30;;;91.05;;
73938;SDS011;62291;47.554;8.504;2022-12-20T02:53:00;1203.90;;;109.97;;
73938;SDS011;62291;47.554;8.504;2022-12-20T02:55:46;999.47;;;98.85;;
73938;SDS011;62291;47.554;8.504;2022-12-20T02:59:01;842.90;;;89.63;;
73938;SDS011;62291;47.554;8.504;2022-12-20T03:01:16;1111.93;;;109.80;;
73938;SDS011;62291;47.554;8.504;2022-12-20T03:03:48;972.47;;;98.38;;
73938;SDS011;62291;47.554;8.504;2022-12-20T03:06:16;1066.63;;;101.90;;
73938;SDS011;62291;47.554;8.504;2022-12-20T03:08:42;1091.43;;;106.07;;
73938;SDS011;62291;47.554;8.504;2022-12-20T03:11:08;813.45;;;93.30;;
73938;SDS011;62291;47.554;8.504;2022-12-20T03:13:33;926.33;;;99.85;;
73938;SDS011;62291;47.554;8.504;2022-12-20T03:15:59;683.85;;;89.82;;
73938;SDS011;62291;47.554;8.504;2022-12-20T03:18:25;754.35;;;93.63;;
73938;SDS011;62291;47.554;8.504;2022-12-20T03:20:51;562.80;;;79.90;;
73938;SDS011;62291;47.554;8.504;2022-12-20T03:23:17;531.63;;;74.85;;
73938;SDS011;62291;47.554;8.504;2022-12-20T03:25:42;787.50;;;92.60;;
73938;SDS011;62291;47.554;8.504;2022-12-20T03:28:08;643.83;;;83.40;;
73938;SDS011;62291;47.554;8.504;2022-12-20T03:30:34;532.17;;;76.93;;
73938;SDS011;62291;47.554;8.504;2022-12-20T03:32:59;601.40;;;83.13;;
73938;SDS011;62291;47.554;8.504;2022-12-20T03:35:25;451.55;;;69.32;;
73938;SDS011;62291;47.554;8.504;2022-12-20T03:37:51;628.38;;;82.63;;
73938;SDS011;62291;47.554;8.504;2022-12-20T03:40:16;585.58;;;81.45;;
73938;SDS011;62291;47.554;8.504;2022-12-20T03:42:42;713.00;;;89.55;;
73938;SDS011;62291;47.554;8.504;2022-12-20T03:45:08;510.73;;;74.03;;
73938;SDS011;62291;47.554;8.504;2022-12-20T03:47:38;718.75;;;89.78;;
73938;SDS011;62291;47.554;8.504;2022-12-20T03:50:05;824.20;;;92.97;;
73938;SDS011;62291;47.554;8.504;2022-12-20T03:52:31;612.25;;;82.20;;
73938;SDS011;62291;47.554;8.504;2022-12-20T03:54:57;1069.60;;;107.50;;
73938;SDS011;62291;47.554;8.504;2022-12-20T03:57:22;986.42;;;108.63;;
73938;SDS011;62291;47.554;8.504;2022-12-20T03:59:48;667.63;;;74.05;;
73938;SDS011;62291;47.554;8.504;2022-12-20T04:02:14;732.00;;;90.63;;
73938;SDS011;62291;47.554;8.504;2022-12-20T04:04:42;764.50;;;93.80;;
73938;SDS011;62291;47.554;8.504;2022-12-20T04:07:08;1143.32;;;114.90;;
73938;SDS011;62291;47.554;8.504;2022-12-20T04:09:34;812.97;;;97.10;;
73938;SDS011;62291;47.554;8.504;2022-12-20T04:12:00;371.70;;;74.43;;
73938;SDS011;62291;47.554;8.504;2022-12-20T04:14:25;383.65;;;71.90;;
73938;SDS011;62291;47.554;8.504;2022-12-20T04:16:51;396.50;;;68.20;;
73938;SDS011;62291;47.554;8.504;2022-12-20T04:19:17;318.30;;;69.97;;
73938;SDS011;62291;47.554;8.504;2022-12-20T04:21:42;288.17;;;67.15;;
73938;SDS011;62291;47.554;8.504;2022-12-20T04:24:08;277.75;;;65.68;;
73938;SDS011;62291;47.554;8.504;2022-12-20T04:26:34;253.63;;;65.18;;
73938;SDS011;62291;47.554;8.504;2022-12-20T04:29:00;367.42;;;70.82;;
73938;SDS011;62291;47.554;8.504;2022-12-20T04:31:26;633.42;;;87.10;;
73938;SDS011;62291;47.554;8.504;2022-12-20T04:33:52;314.17;;;68.22;;
73938;SDS011;62291;47.554;8.504;2022-12-20T04:36:18;256.13;;;64.38;;
73938;SDS011;62291;47.554;8.504;2022-12-20T04:38:44;277.38;;;65.68;;
73938;SDS011;62291;47.554;8.504;2022-12-20T04:41:09;222.98;;;62.60;;
73938;SDS011;62291;47.554;8.504;2022-12-20T04:43:46;187.30;;;55.63;;
73938;SDS011;62291;47.554;8.504;2022-12-20T04:46:16;199.82;;;58.38;;
73938;SDS011;62291;47.554;8.504;2022-12-20T04:48:42;233.32;;;62.40;;
73938;SDS011;62291;47.554;8.504;2022-12-20T04:51:08;1236.00;;;124.20;;
73938;SDS011;62291;47.554;8.504;2022-12-20T04:53:35;1054.43;;;107.20;;
73938;SDS011;62291;47.554;8.504;2022-12-20T04:56:26;875.22;;;96.43;;
73938;SDS011;62291;47.554;8.504;2022-12-20T04:58:53;469.02;;;76.85;;
73938;SDS011;62291;47.554;8.504;2022-12-20T05:01:21;902.30;;;99.50;;
73938;SDS011;62291;47.554;8.504;2022-12-20T05:03:47;816.78;;;96.57;;
73938;SDS011;62291;47.554;8.504;2022-12-20T05:06:13;421.33;;;69.18;;
73938;SDS011;62291;47.554;8.504;2022-12-20T05:08:39;451.40;;;75.60;;
73938;SDS011;62291;47.554;8.504;2022-12-20T05:11:05;539.58;;;85.03;;
73938;SDS011;62291;47.554;8.504;2022-12-20T05:13:32;427.63;;;75.75;;
73938;SDS011;62291;47.554;8.504;2022-12-20T05:15:58;690.03;;;85.43;;
73938;SDS011;62291;47.554;8.504;2022-12-20T05:18:24;491.60;;;75.38;;
73938;SDS011;62291;47.554;8.504;2022-12-20T05:20:50;619.58;;;83.35;;
73938;SDS011;62291;47.554;8.504;2022-12-20T05:23:39;226.05;;;59.65;;
73938;SDS011;62291;47.554;8.504;2022-12-20T05:26:23;232.35;;;60.88;;
73938;SDS011;62291;47.554;8.504;2022-12-20T05:28:50;287.45;;;62.55;;
73938;SDS011;62291;47.554;8.504;2022-12-20T05:31:16;222.07;;;60.78;;
73938;SDS011;62291;47.554;8.504;2022-12-20T05:33:42;242.70;;;60.45;;
73938;SDS011;62291;47.554;8.504;2022-12-20T05:36:08;229.60;;;60.65;;
73938;SDS011;62291;47.554;8.504;2022-12-20T05:38:33;301.98;;;66.72;;
73938;SDS011;62291;47.554;8.504;2022-12-20T05:40:59;308.10;;;67.55;;
73938;SDS011;62291;47.554;8.504;2022-12-20T05:43:25;301.30;;;70.60;;
73938;SDS011;62291;47.554;8.504;2022-12-20T05:45:51;334.27;;;69.47;;
73938;SDS011;62291;47.554;8.504;2022-12-20T05:48:18;349.42;;;70.03;;
73938;SDS011;62291;47.554;8.504;2022-12-20T05:50:44;413.48;;;71.72;;
73938;SDS011;62291;47.554;8.504;2022-12-20T05:53:11;334.65;;;70.70;;
73938;SDS011;62291;47.554;8.504;2022-12-20T05:55:38;668.40;;;79.97;;
73938;SDS011;62291;47.554;8.504;2022-12-20T05:58:11;797.88;;;88.95;;
73938;SDS011;62291;47.554;8.504;2022-12-20T06:00:38;1478.78;;;125.50;;
73938;SDS011;62291;47.554;8.504;2022-12-20T06:03:10;1489.00;;;125.70;;
73938;SDS011;62291;47.554;8.504;2022-12-20T06:05:37;729.80;;;83.57;;
73938;SDS011;62291;47.554;8.504;2022-12-20T06:08:04;1177.55;;;105.35;;
73938;SDS011;62291;47.554;8.504;2022-12-20T06:10:30;652.47;;;80.43;;
73938;SDS011;62291;47.554;8.504;2022-12-20T06:12:58;885.03;;;104.03;;
73938;SDS011;62291;47.554;8.504;2022-12-20T06:15:24;751.20;;;95.88;;
73938;SDS011;62291;47.554;8.504;2022-12-20T06:17:50;502.38;;;80.00;;
73938;SDS011;62291;47.554;8.504;2022-12-20T06:20:16;1116.55;;;115.53;;
73938;SDS011;62291;47.554;8.504;2022-12-20T06:22:42;935.55;;;104.95;;
73938;SDS011;62291;47.554;8.504;2022-12-20T06:25:07;475.25;;;75.90;;
73938;SDS011;62291;47.554;8.504;2022-12-20T06:27:34;667.10;;;81.35;;
73938;SDS011;62291;47.554;8.504;2022-12-20T06:30:00;913.53;;;101.45;;
73938;SDS011;62291;47.554;8.504;2022-12-20T06:32:27;560.95;;;77.63;;
73938;SDS011;62291;47.554;8.504;2022-12-20T06:34:53;630.10;;;82.65;;
73938;SDS011;62291;47.554;8.504;2022-12-20T06:37:19;578.63;;;81.63;;
73938;SDS011;62291;47.554;8.504;2022-12-20T06:39:44;698.65;;;87.30;;
73938;SDS011;62291;47.554;8.504;2022-12-20T06:42:10;908.80;;;98.05;;
73938;SDS011;62291;47.554;8.504;2022-12-20T06:44:36;444.48;;;69.82;;
73938;SDS011;62291;47.554;8.504;2022-12-20T06:47:01;469.95;;;70.38;;
73938;SDS011;62291;47.554;8.504;2022-12-20T06:49:27;301.05;;;62.85;;
73938;SDS011;62291;47.554;8.504;2022-12-20T06:51:53;224.85;;;59.13;;
73938;SDS011;62291;47.554;8.504;2022-12-20T06:54:19;223.13;;;59.28;;
73938;SDS011;62291;47.554;8.504;2022-12-20T06:56:45;236.82;;;58.95;;
73938;SDS011;62291;47.554;8.504;2022-12-20T06:59:11;191.75;;;55.25;;
73938;SDS011;62291;47.554;8.504;2022-12-20T07:01:37;187.68;;;54.83;;
73938;SDS011;62291;47.554;8.504;2022-12-20T07:04:02;447.45;;;72.18;;
73938;SDS011;62291;47.554;8.504;2022-12-20T07:06:28;258.05;;;63.05;;
73938;SDS011;62291;47.554;8.504;2022-12-20T07:08:54;330.40;;;67.07;;
73938;SDS011;62291;47.554;8.504;2022-12-20T07:11:20;333.77;;;68.65;;
73938;SDS011;62291;47.554;8.504;2022-12-20T07:13:45;243.68;;;62.15;;
73938;SDS011;62291;47.554;8.504;2022-12-20T07:16:11;450.33;;;78.03;;
73938;SDS011;62291;47.554;8.504;2022-12-20T07:18:37;264.23;;;63.17;;
73938;SDS011;62291;47.554;8.504;2022-12-20T07:21:03;399.58;;;106.63;;
73938;SDS011;62291;47.554;8.504;2022-12-20T07:23:29;319.58;;;85.93;;
73938;SDS011;62291;47.554;8.504;2022-12-20T07:25:56;308.25;;;77.45;;
73938;SDS011;62291;47.554;8.504;2022-12-20T07:28:23;414.52;;;80.30;;
73938;SDS011;62291;47.554;8.504;2022-12-20T07:30:50;286.42;;;69.07;;
73938;SDS011;62291;47.554;8.504;2022-12-20T07:33:16;265.77;;;64.15;;
73938;SDS011;62291;47.554;8.504;2022-12-20T07:35:42;232.30;;;56.60;;
73938;SDS011;62291;47.554;8.504;2022-12-20T07:38:10;254.75;;;61.92;;
73938;SDS011;62291;47.554;8.504;2022-12-20T07:40:38;313.48;;;71.65;;
73938;SDS011;62291;47.554;8.504;2022-12-20T07:43:06;216.45;;;59.92;;
73938;SDS011;62291;47.554;8.504;2022-12-20T07:45:32;283.80;;;67.22;;
73938;SDS011;62291;47.554;8.504;2022-12-20T07:47:58;267.58;;;63.78;;
73938;SDS011;62291;47.554;8.504;2022-12-20T07:50:23;218.23;;;58.03;;
73938;SDS011;62291;47.554;8.504;2022-12-20T07:52:51;413.45;;;66.15;;
73938;SDS011;62291;47.554;8.504;2022-12-20T07:55:17;260.05;;;61.20;;
73938;SDS011;62291;47.554;8.504;2022-12-20T07:57:48;219.77;;;59.17;;
73938;SDS011;62291;47.554;8.504;2022-12-20T08:00:20;236.45;;;63.97;;
73938;SDS011;62291;47.554;8.504;2022-12-20T08:03:08;238.38;;;60.38;;
73938;SDS011;62291;47.554;8.504;2022-12-20T08:05:37;255.68;;;63.08;;
73938;SDS011;62291;47.554;8.504;2022-12-20T08:08:07;290.50;;;58.30;;
73938;SDS011;62291;47.554;8.504;2022-12-20T08:10:33;569.38;;;80.90;;
73938;SDS011;62291;47.554;8.504;2022-12-20T08:13:00;235.57;;;59.25;;
73938;SDS011;62291;47.554;8.504;2022-12-20T08:15:27;208.10;;;57.67;;
73938;SDS011;62291;47.554;8.504;2022-12-20T08:17:53;521.88;;;77.70;;
73938;SDS011;62291;47.554;8.504;2022-12-20T08:20:19;421.75;;;70.70;;
73938;SDS011;62291;47.554;8.504;2022-12-20T08:22:44;205.90;;;58.13;;
73938;SDS011;62291;47.554;8.504;2022-12-20T08:25:10;211.35;;;58.47;;
73938;SDS011;62291;47.554;8.504;2022-12-20T08:27:36;156.35;;;53.38;;
73938;SDS011;62291;47.554;8.504;2022-12-20T08:30:02;157.25;;;51.67;;
73938;SDS011;62291;47.554;8.504;2022-12-20T08:32:29;207.10;;;63.67;;
73938;SDS011;62291;47.554;8.504;2022-12-20T08:34:54;186.02;;;57.13;;
73938;SDS011;62291;47.554;8.504;2022-12-20T08:37:20;201.98;;;73.13;;
73938;SDS011;62291;47.554;8.504;2022-12-20T08:39:46;204.43;;;64.65;;
73938;SDS011;62291;47.554;8.504;2022-12-20T08:42:12;163.20;;;56.40;;
73938;SDS011;62291;47.554;8.504;2022-12-20T08:44:38;137.18;;;53.47;;
73938;SDS011;62291;47.554;8.504;2022-12-20T08:47:03;152.38;;;53.65;;
73938;SDS011;62291;47.554;8.504;2022-12-20T08:49:29;130.38;;;49.28;;
73938;SDS011;62291;47.554;8.504;2022-12-20T08:51:55;111.25;;;47.78;;
73938;SDS011;62291;47.554;8.504;2022-12-20T08:54:21;135.32;;;51.83;;
73938;SDS011;62291;47.554;8.504;2022-12-20T08:56:46;118.05;;;46.53;;
73938;SDS011;62291;47.554;8.504;2022-12-20T08:59:12;105.75;;;46.28;;
73938;SDS011;62291;47.554;8.504;2022-12-20T09:01:38;112.40;;;48.10;;
73938;SDS011;62291;47.554;8.504;2022-12-20T09:04:03;109.40;;;46.28;;
73938;SDS011;62291;47.554;8.504;2022-12-20T09:06:29;141.93;;;49.15;;
73938;SDS011;62291;47.554;8.504;2022-12-20T09:08:55;117.93;;;45.53;;
73938;SDS011;62291;47.554;8.504;2022-12-20T09:11:22;119.88;;;47.80;;
73938;SDS011;62291;47.554;8.504;2022-12-20T09:13:49;122.35;;;46.60;;
73938;SDS011;62291;47.554;8.504;2022-12-20T09:16:18;115.63;;;45.50;;
73938;SDS011;62291;47.554;8.504;2022-12-20T09:18:49;105.82;;;44.20;;
73938;SDS011;62291;47.554;8.504;2022-12-20T09:21:16;99.00;;;45.17;;
73938;SDS011;62291;47.554;8.504;2022-12-20T09:23:42;118.35;;;48.50;;
73938;SDS011;62291;47.554;8.504;2022-12-20T09:26:11;135.43;;;51.83;;
73938;SDS011;62291;47.554;8.504;2022-12-20T09:28:39;112.07;;;48.05;;
73938;SDS011;62291;47.554;8.504;2022-12-20T09:31:05;103.90;;;45.20;;
73938;SDS011;62291;47.554;8.504;2022-12-20T09:33:33;108.18;;;45.60;;
73938;SDS011;62291;47.554;8.504;2022-12-20T09:35:59;100.10;;;44.78;;
73938;SDS011;62291;47.554;8.504;2022-12-20T09:38:26;85.20;;;42.22;;
73938;SDS011;62291;47.554;8.504;2022-12-20T09:40:53;84.22;;;40.63;;
73938;SDS011;62291;47.554;8.504;2022-12-20T09:43:22;88.72;;;40.28;;
73938;SDS011;62291;47.554;8.504;2022-12-20T09:45:52;97.80;;;42.75;;
73938;SDS011;62291;47.554;8.504;2022-12-20T09:48:30;89.50;;;41.03;;
73938;SDS011;62291;47.554;8.504;2022-12-20T09:51:06;85.90;;;39.42;;
73938;SDS011;62291;47.554;8.504;2022-12-20T09:56:44;79.60;;;37.92;;
73938;SDS011;62291;47.554;8.504;2022-12-20T09:59:18;77.63;;;37.10;;
73938;SDS011;62291;47.554;8.504;2022-12-20T10:01:45;89.13;;;41.63;;
73938;SDS011;62291;47.554;8.504;2022-12-20T10:04:26;74.05;;;37.50;;
73938;SDS011;62291;47.554;8.504;2022-12-20T10:09:41;75.63;;;37.00;;
73938;SDS011;62291;47.554;8.504;2022-12-20T10:25:35;73.93;;;37.00;;
73938;SDS011;62291;47.554;8.504;2022-12-20T10:28:10;63.13;;;34.10;;
73938;SDS011;62291;47.554;8.504;2022-12-20T10:30:39;61.10;;;33.47;;
73938;SDS011;62291;47.554;8.504;2022-12-20T10:33:07;59.35;;;32.88;;
73938;SDS011;62291;47.554;8.504;2022-12-20T10:35:44;57.03;;;32.08;;
73938;SDS011;62291;47.554;8.504;2022-12-20T10:38:11;60.63;;;33.30;;
73938;SDS011;62291;47.554;8.504;2022-12-20T10:43:38;62.58;;;34.40;;
73938;SDS011;62291;47.554;8.504;2022-12-20T10:46:08;58.95;;;32.30;;
73938;SDS011;62291;47.554;8.504;2022-12-20T10:48:35;70.88;;;34.70;;
73938;SDS011;62291;47.554;8.504;2022-12-20T10:56:18;70.43;;;35.25;;
73938;SDS011;62291;47.554;8.504;2022-12-20T10:58:55;74.05;;;36.30;;
73938;SDS011;62291;47.554;8.504;2022-12-20T11:01:26;74.53;;;38.08;;
73938;SDS011;62291;47.554;8.504;2022-12-20T11:03:58;75.10;;;37.30;;
73938;SDS011;62291;47.554;8.504;2022-12-20T11:06:39;82.28;;;41.63;;
73938;SDS011;62291;47.554;8.504;2022-12-20T11:12:06;79.32;;;39.65;;
73938;SDS011;62291;47.554;8.504;2022-12-20T11:17:24;67.63;;;36.72;;
73938;SDS011;62291;47.554;8.504;2022-12-20T11:25:57;79.93;;;40.97;;
73938;SDS011;62291;47.554;8.504;2022-12-20T11:28:53;76.22;;;37.97;;
73938;SDS011;62291;47.554;8.504;2022-12-20T11:31:36;79.97;;;41.05;;
73938;SDS011;62291;47.554;8.504;2022-12-20T11:34:12;76.80;;;41.40;;
73938;SDS011;62291;47.554;8.504;2022-12-20T11:37:02;70.30;;;38.22;;
73938;SDS011;62291;47.554;8.504;2022-12-20T11:45:26;72.88;;;39.30;;
73938;SDS011;62291;47.554;8.504;2022-12-20T11:51:03;75.43;;;39.65;;
73938;SDS011;62291;47.554;8.504;2022-12-20T11:53:54;71.80;;;37.90;;
73938;SDS011;62291;47.554;8.504;2022-12-20T11:56:29;71.55;;;39.20;;
73938;SDS011;62291;47.554;8.504;2022-12-20T11:59:04;70.60;;;39.22;;
73938;SDS011;62291;47.554;8.504;2022-12-20T12:04:25;68.45;;;37.08;;
73938;SDS011;62291;47.554;8.504;2022-12-20T12:06:58;67.72;;;37.30;;
73938;SDS011;62291;47.554;8.504;2022-12-20T12:12:14;73.30;;;38.33;;
73938;SDS011;62291;47.554;8.504;2022-12-20T12:17:52;67.80;;;37.47;;
73938;SDS011;62291;47.554;8.504;2022-12-20T12:20:33;68.30;;;36.40;;
73938;SDS011;62291;47.554;8.504;2022-12-20T12:23:12;65.60;;;36.30;;
73938;SDS011;62291;47.554;8.504;2022-12-20T12:25:40;61.90;;;35.03;;
73938;SDS011;62291;47.554;8.504;2022-12-20T12:28:08;62.20;;;35.05;;
73938;SDS011;62291;47.554;8.504;2022-12-20T12:30:38;60.67;;;34.78;;
73938;SDS011;62291;47.554;8.504;2022-12-20T12:33:13;62.78;;;35.13;;
73938;SDS011;62291;47.554;8.504;2022-12-20T12:47:01;63.65;;;35.38;;
73938;SDS011;62291;47.554;8.504;2022-12-20T12:49:35;62.38;;;34.83;;
73938;SDS011;62291;47.554;8.504;2022-12-20T12:52:03;65.70;;;35.97;;
73938;SDS011;62291;47.554;8.504;2022-12-20T12:54:37;66.35;;;36.90;;
73938;SDS011;62291;47.554;8.504;2022-12-20T12:57:11;62.85;;;35.13;;
73938;SDS011;62291;47.554;8.504;2022-12-20T12:59:41;65.40;;;36.03;;
73938;SDS011;62291;47.554;8.504;2022-12-20T13:07:44;66.47;;;35.70;;
73938;SDS011;62291;47.554;8.504;2022-12-20T13:20:41;65.78;;;35.75;;
73938;SDS011;62291;47.554;8.504;2022-12-20T13:25:35;67.90;;;37.03;;
73938;SDS011;62291;47.554;8.504;2022-12-20T13:33:41;61.22;;;35.25;;
73938;SDS011;62291;47.554;8.504;2022-12-20T13:44:47;59.28;;;33.17;;
73938;SDS011;62291;47.554;8.504;2022-12-20T13:47:11;60.85;;;33.28;;
73938;SDS011;62291;47.554;8.504;2022-12-20T13:54:39;58.33;;;33.57;;
73938;SDS011;62291;47.554;8.504;2022-12-20T13:57:06;59.38;;;33.85;;
73938;SDS011;62291;47.554;8.504;2022-12-20T13:59:35;62.38;;;33.72;;
73938;SDS011;62291;47.554;8.504;2022-12-20T14:02:02;56.83;;;33.95;;
73938;SDS011;62291;47.554;8.504;2022-12-20T14:04:39;59.67;;;34.33;;
73938;SDS011;62291;47.554;8.504;2022-12-20T14:07:08;62.95;;;36.00;;
73938;SDS011;62291;47.554;8.504;2022-12-20T14:09:38;66.15;;;36.17;;
73938;SDS011;62291;47.554;8.504;2022-12-20T14:12:12;68.15;;;35.72;;
73938;SDS011;62291;47.554;8.504;2022-12-20T14:14:47;63.40;;;36.80;;
73938;SDS011;62291;47.554;8.504;2022-12-20T14:17:24;65.10;;;35.65;;
73938;SDS011;62291;47.554;8.504;2022-12-20T14:22:40;58.67;;;34.22;;
73938;SDS011;62291;47.554;8.504;2022-12-20T14:25:19;58.65;;;35.90;;
73938;SDS011;62291;47.554;8.504;2022-12-20T14:27:59;62.78;;;36.67;;
73938;SDS011;62291;47.554;8.504;2022-12-20T14:30:26;62.50;;;36.80;;
73938;SDS011;62291;47.554;8.504;2022-12-20T14:32:57;68.57;;;37.22;;
73938;SDS011;62291;47.554;8.504;2022-12-20T14:35:23;65.68;;;36.60;;
73938;SDS011;62291;47.554;8.504;2022-12-20T14:37:54;66.35;;;35.92;;
73938;SDS011;62291;47.554;8.504;2022-12-20T14:40:26;66.47;;;37.15;;
73938;SDS011;62291;47.554;8.504;2022-12-20T14:42:52;67.55;;;37.60;;
73938;SDS011;62291;47.554;8.504;2022-12-20T14:45:19;76.28;;;41.58;;
73938;SDS011;62291;47.554;8.504;2022-12-20T14:47:49;78.90;;;42.75;;
73938;SDS011;62291;47.554;8.504;2022-12-20T14:50:30;77.95;;;41.90;;
73938;SDS011;62291;47.554;8.504;2022-12-20T14:52:58;79.30;;;43.38;;
73938;SDS011;62291;47.554;8.504;2022-12-20T14:55:32;82.13;;;43.28;;
73938;SDS011;62291;47.554;8.504;2022-12-20T14:58:01;90.28;;;47.03;;
73938;SDS011;62291;47.554;8.504;2022-12-20T15:00:54;79.13;;;41.97;;
73938;SDS011;62291;47.554;8.504;2022-12-20T15:03:26;89.13;;;45.92;;
73938;SDS011;62291;47.554;8.504;2022-12-20T15:05:55;90.70;;;45.85;;
73938;SDS011;62291;47.554;8.504;2022-12-20T15:13:32;96.53;;;46.90;;
73938;SDS011;62291;47.554;8.504;2022-12-20T15:16:01;94.43;;;49.45;;
73938;SDS011;62291;47.554;8.504;2022-12-20T15:18:37;83.93;;;44.35;;
73938;SDS011;62291;47.554;8.504;2022-12-20T15:21:48;88.15;;;47.35;;
73938;SDS011;62291;47.554;8.504;2022-12-20T15:24:10;89.93;;;46.53;;
73938;SDS011;62291;47.554;8.504;2022-12-20T15:26:38;101.28;;;51.95;;
73938;SDS011;62291;47.554;8.504;2022-12-20T15:29:05;97.05;;;50.53;;
73938;SDS011;62291;47.554;8.504;2022-12-20T15:31:34;96.38;;;49.25;;
73938;SDS011;62291;47.554;8.504;2022-12-20T15:34:06;104.50;;;51.83;;
73938;SDS011;62291;47.554;8.504;2022-12-20T15:36:42;101.83;;;51.27;;
73938;SDS011;62291;47.554;8.504;2022-12-20T15:39:08;99.97;;;51.67;;
73938;SDS011;62291;47.554;8.504;2022-12-20T15:41:35;100.97;;;49.92;;
73938;SDS011;62291;47.554;8.504;2022-12-20T15:44:05;104.07;;;53.75;;
73938;SDS011;62291;47.554;8.504;2022-12-20T15:46:35;111.65;;;52.60;;
73938;SDS011;62291;47.554;8.504;2022-12-20T15:49:01;109.25;;;53.80;;
73938;SDS011;62291;47.554;8.504;2022-12-20T15:51:30;107.10;;;52.35;;
73938;SDS011;62291;47.554;8.504;2022-12-20T15:54:00;103.07;;;50.65;;
73938;SDS011;62291;47.554;8.504;2022-12-20T15:56:28;104.03;;;50.47;;
73938;SDS011;62291;47.554;8.504;2022-12-20T15:58:54;99.50;;;49.20;;
73938;SDS011;62291;47.554;8.504;2022-12-20T16:01:54;107.55;;;51.92;;
73938;SDS011;62291;47.554;8.504;2022-12-20T16:04:16;106.88;;;51.13;;
73938;SDS011;62291;47.554;8.504;2022-12-20T16:06:43;109.47;;;51.65;;
73938;SDS011;62291;47.554;8.504;2022-12-20T16:09:10;105.85;;;51.05;;
73938;SDS011;62291;47.554;8.504;2022-12-20T16:11:36;105.60;;;52.78;;
73938;SDS011;62291;47.554;8.504;2022-12-20T16:14:02;107.85;;;54.20;;
73938;SDS011;62291;47.554;8.504;2022-12-20T16:16:29;106.28;;;54.63;;
73938;SDS011;62291;47.554;8.504;2022-12-20T16:18:57;118.78;;;54.90;;
73938;SDS011;62291;47.554;8.504;2022-12-20T16:21:24;105.90;;;54.05;;
73938;SDS011;62291;47.554;8.504;2022-12-20T16:23:52;96.30;;;50.72;;
73938;SDS011;62291;47.554;8.504;2022-12-20T16:26:19;99.88;;;50.55;;
73938;SDS011;62291;47.554;8.504;2022-12-20T16:28:47;102.75;;;53.30;;
73938;SDS011;62291;47.554;8.504;2022-12-20T16:31:20;99.40;;;52.38;;
73938;SDS011;62291;47.554;8.504;2022-12-20T16:33:47;97.57;;;51.35;;
73938;SDS011;62291;47.554;8.504;2022-12-20T16:36:13;94.53;;;49.47;;